createdAt,value
2022-12-25T00:00:30.560Z,23.83
2022-12-25T00:03:02.836Z,22.80
2022-12-25T00:05:38.230Z,20.88
2022-12-25T00:08:10.555Z,21.95
2022-12-25T00:10:45.397Z,20.02
2022-12-25T00:13:17.671Z,21.27
2022-12-25T00:15:49.693Z,20.27
2022-12-25T00:18:22.487Z,22.40
2022-12-25T00:21:01.164Z,22.55
2022-12-25T00:23:34.610Z,17.02
2022-12-25T00:26:07.892Z,19.42
2022-12-25T00:28:40.076Z,18.98
2022-12-25T00:31:14.331Z,23.05
2022-12-25T00:33:49.016Z,18.70
2022-12-25T00:36:23.206Z,19.70
2022-12-25T00:38:55.113Z,18.73
2022-12-25T00:41:45.430Z,19.25
2022-12-25T00:44:18.195Z,23.23
2022-12-25T00:46:50.201Z,22.17
2022-12-25T00:49:23.792Z,20.50
2022-12-25T00:51:57.305Z,22.67
2022-12-25T00:54:29.232Z,19.98
2022-12-25T00:57:01.336Z,21.50
2022-12-25T00:59:34.725Z,20.23
2022-12-25T01:02:24.748Z,18.10
2022-12-25T01:04:57.277Z,18.08
2022-12-25T01:07:30.674Z,21.90
2022-12-25T01:10:21.491Z,21.55
2022-12-25T01:12:53.461Z,18.33
2022-12-25T01:15:25.471Z,18.50
2022-12-25T01:17:57.421Z,18.23
2022-12-25T01:20:29.405Z,17.70
2022-12-25T01:23:02.742Z,18.40
2022-12-25T01:25:34.732Z,17.17
2022-12-25T01:28:06.899Z,18.52
2022-12-25T01:30:38.875Z,19.85
2022-12-25T01:33:10.857Z,17.73
2022-12-25T01:35:42.857Z,17.80
2022-12-25T01:38:16.199Z,18.63
2022-12-25T01:40:48.139Z,19.35
2022-12-25T01:43:24.511Z,18.27
2022-12-25T01:45:57.811Z,17.77
2022-12-25T01:48:33.275Z,18.67
2022-12-25T01:51:11.363Z,19.35
2022-12-25T01:53:44.721Z,19.80
2022-12-25T01:56:16.711Z,18.33
2022-12-25T01:58:49.012Z,18.85
2022-12-25T02:01:21.388Z,17.88
2022-12-25T02:03:59.487Z,15.48
2022-12-25T02:06:34.556Z,16.90
2022-12-25T02:09:08.049Z,15.60
2022-12-25T02:11:58.360Z,16.75
2022-12-25T02:14:32.975Z,15.98
2022-12-25T02:17:13.392Z,14.02
2022-12-25T02:20:06.105Z,16.45
2022-12-25T02:22:48.830Z,18.08
2022-12-25T02:25:36.480Z,15.45
2022-12-25T02:28:16.954Z,18.13
2022-12-25T02:30:54.750Z,17.38
2022-12-25T02:33:48.853Z,18.60
2022-12-25T02:36:24.679Z,18.60
2022-12-25T02:39:18.738Z,17.98
2022-12-25T02:41:53.859Z,17.63
2022-12-25T02:44:48.787Z,16.40
2022-12-25T02:47:45.271Z,14.27
2022-12-25T02:50:37.374Z,20.20
2022-12-25T02:53:28.729Z,18.67
2022-12-25T02:56:19.603Z,19.58
2022-12-25T02:59:10.133Z,16.00
2022-12-25T03:02:03.691Z,14.50
2022-12-25T03:04:57.609Z,17.38
2022-12-25T03:07:31.149Z,16.33
2022-12-25T03:10:27.178Z,15.38
2022-12-25T03:13:04.286Z,13.73
2022-12-25T03:15:55.484Z,14.07
2022-12-25T03:18:31.158Z,14.60
2022-12-25T03:21:21.956Z,14.57
2022-12-25T03:24:17.566Z,14.32
2022-12-25T03:26:55.238Z,13.55
2022-12-25T03:29:49.872Z,11.95
2022-12-25T03:32:34.074Z,15.05
2022-12-25T03:35:24.384Z,14.05
2022-12-25T03:38:32.567Z,13.68
2022-12-25T03:41:31.757Z,13.50
2022-12-25T03:44:28.938Z,13.23
2022-12-25T03:47:27.444Z,14.85
2022-12-25T03:50:24.626Z,13.27
2022-12-25T03:53:20.140Z,17.20
2022-12-25T03:56:11.718Z,13.75
2022-12-25T03:59:09.794Z,13.55
2022-12-25T04:02:02.106Z,14.18
2022-12-25T04:04:52.804Z,14.30
2022-12-25T04:07:43.367Z,14.65
2022-12-25T04:10:35.382Z,13.88
2022-12-25T04:13:25.942Z,14.10
2022-12-25T04:16:16.377Z,14.02
2022-12-25T04:19:07.059Z,14.88
2022-12-25T04:21:57.511Z,14.07
2022-12-25T04:24:48.074Z,13.98
2022-12-25T04:27:39.921Z,13.32
2022-12-25T04:30:30.765Z,14.98
2022-12-25T04:33:21.175Z,12.13
2022-12-25T04:36:12.173Z,13.55
2022-12-25T04:38:44.281Z,13.30
2022-12-25T04:41:16.201Z,13.63
2022-12-25T04:43:49.479Z,12.15
2022-12-25T04:46:21.475Z,11.57
2022-12-25T04:48:53.401Z,15.18
2022-12-25T04:51:25.889Z,12.65
2022-12-25T04:53:57.844Z,13.57
2022-12-25T04:56:29.751Z,13.38
2022-12-25T04:59:03.372Z,11.57
2022-12-25T05:01:35.534Z,12.85
2022-12-25T05:04:07.632Z,12.00
2022-12-25T05:06:40.324Z,14.90
2022-12-25T05:09:12.346Z,13.23
2022-12-25T05:11:44.262Z,12.55
2022-12-25T05:14:17.917Z,12.77
2022-12-25T05:16:49.888Z,12.70
2022-12-25T05:19:21.840Z,11.90
2022-12-25T05:21:54.184Z,11.63
2022-12-25T05:24:27.882Z,13.00
2022-12-25T05:26:59.894Z,12.95
2022-12-25T05:29:33.262Z,11.13
2022-12-25T05:32:05.670Z,11.55
2022-12-25T05:34:37.713Z,11.35
2022-12-25T05:37:09.676Z,10.43
2022-12-25T05:39:41.667Z,10.27
2022-12-25T05:42:13.635Z,11.45
2022-12-25T05:44:47.006Z,11.43
2022-12-25T05:47:18.969Z,10.73
2022-12-25T05:49:50.961Z,10.88
2022-12-25T05:52:22.896Z,11.15
2022-12-25T05:54:54.908Z,10.63
2022-12-25T05:57:29.001Z,10.23
2022-12-25T06:00:02.314Z,13.43
2022-12-25T06:02:44.482Z,11.95
2022-12-25T06:05:16.736Z,12.95
2022-12-25T06:07:48.666Z,11.82
2022-12-25T06:10:20.688Z,12.38
2022-12-25T06:12:52.685Z,11.73
2022-12-25T06:15:26.122Z,10.30
2022-12-25T06:18:00.020Z,10.18
2022-12-25T06:20:31.996Z,10.82
2022-12-25T06:23:03.948Z,9.98
2022-12-25T06:25:38.511Z,11.48
2022-12-25T06:28:10.488Z,13.60
2022-12-25T06:30:43.842Z,15.02
2022-12-25T06:33:15.824Z,14.45
2022-12-25T06:35:47.770Z,16.45
2022-12-25T06:38:19.751Z,13.77
2022-12-25T06:40:51.730Z,12.15
2022-12-25T06:43:23.687Z,12.48
2022-12-25T06:45:57.222Z,11.80
2022-12-25T06:48:29.235Z,14.43
2022-12-25T06:51:02.453Z,12.80
2022-12-25T06:53:40.649Z,13.45
2022-12-25T06:56:15.826Z,14.63
2022-12-25T06:58:50.086Z,13.35
2022-12-25T07:01:26.352Z,18.38
2022-12-25T07:04:01.341Z,17.17
2022-12-25T07:06:33.703Z,18.27
2022-12-25T07:09:05.645Z,19.02
2022-12-25T07:11:37.709Z,15.95
2022-12-25T07:14:23.241Z,18.38
2022-12-25T07:16:57.487Z,16.77
2022-12-25T07:19:29.712Z,19.08
2022-12-25T07:22:01.682Z,18.05
2022-12-25T07:24:33.646Z,19.75
2022-12-25T07:27:05.770Z,19.45
2022-12-25T07:29:37.728Z,19.52
2022-12-25T07:32:11.261Z,18.80
2022-12-25T07:34:43.215Z,17.20
2022-12-25T07:37:15.172Z,19.98
2022-12-25T07:39:47.118Z,19.45
2022-12-25T07:42:23.372Z,20.90
2022-12-25T07:44:58.076Z,20.15
2022-12-25T07:47:31.485Z,18.25
2022-12-25T07:50:03.796Z,17.30
2022-12-25T07:52:43.062Z,19.40
2022-12-25T07:55:15.542Z,20.95
2022-12-25T07:57:47.496Z,18.58
2022-12-25T08:00:20.084Z,19.48
2022-12-25T08:02:53.475Z,19.77
2022-12-25T08:05:26.089Z,20.55
2022-12-25T08:07:58.403Z,21.17
2022-12-25T08:10:30.435Z,22.98
2022-12-25T08:13:02.434Z,26.30
2022-12-25T08:15:34.440Z,26.90
2022-12-25T08:18:07.893Z,27.77
2022-12-25T08:20:39.922Z,31.77
2022-12-25T08:23:11.888Z,35.67
2022-12-25T08:25:43.876Z,34.95
2022-12-25T08:28:15.939Z,37.60
2022-12-25T08:30:47.878Z,41.35
2022-12-25T08:33:21.326Z,37.17
2022-12-25T08:35:53.331Z,31.88
2022-12-25T08:38:25.348Z,36.53
2022-12-25T08:40:57.302Z,40.42
2022-12-25T08:43:29.344Z,39.90
2022-12-25T08:46:01.443Z,44.60
2022-12-25T08:48:35.356Z,37.38
2022-12-25T08:51:14.547Z,38.28
2022-12-25T08:53:48.766Z,39.13
2022-12-25T08:56:21.166Z,41.60
2022-12-25T08:58:53.258Z,40.08
2022-12-25T09:01:25.308Z,41.78
2022-12-25T09:03:59.050Z,42.15
2022-12-25T09:06:31.036Z,44.03
2022-12-25T09:09:03.209Z,44.33
2022-12-25T09:11:35.145Z,39.47
2022-12-25T09:14:07.130Z,30.33
2022-12-25T09:16:39.270Z,38.60
2022-12-25T09:19:12.667Z,38.72
2022-12-25T09:21:44.660Z,33.10
2022-12-25T09:24:16.675Z,31.08
2022-12-25T09:26:48.644Z,34.58
2022-12-25T09:29:20.672Z,29.40
2022-12-25T09:31:52.775Z,30.58
2022-12-25T09:34:26.139Z,24.95
2022-12-25T09:36:58.138Z,28.40
2022-12-25T09:39:30.207Z,27.70
2022-12-25T09:42:05.524Z,31.67
2022-12-25T09:44:40.985Z,30.65
2022-12-25T09:47:16.549Z,27.65
2022-12-25T09:49:55.660Z,24.80
2022-12-25T09:52:35.571Z,31.92
2022-12-25T09:55:19.662Z,33.95
2022-12-25T09:57:54.711Z,22.88
2022-12-25T10:00:32.103Z,23.95
2022-12-25T10:03:16.317Z,20.98
2022-12-25T10:06:10.995Z,20.05
2022-12-25T10:09:16.832Z,14.65
2022-12-25T10:12:01.931Z,18.17
2022-12-25T10:14:46.777Z,19.48
2022-12-25T10:17:35.655Z,21.63
2022-12-25T10:20:18.645Z,19.77
2022-12-25T10:22:57.631Z,18.20
2022-12-25T10:25:30.988Z,17.52
2022-12-25T10:28:11.411Z,20.02
2022-12-25T10:30:45.120Z,18.35
2022-12-25T10:33:21.752Z,17.05
2022-12-25T10:35:53.832Z,19.02
2022-12-25T10:38:27.158Z,19.75
2022-12-25T10:41:19.027Z,23.73
2022-12-25T10:43:52.964Z,24.13
2022-12-25T10:46:27.867Z,27.27
2022-12-25T10:49:02.336Z,51.50
2022-12-25T10:51:37.693Z,26.65
2022-12-25T10:54:21.123Z,26.55
2022-12-25T10:56:54.606Z,22.85
2022-12-25T10:59:28.172Z,20.98
2022-12-25T11:02:13.356Z,32.15
2022-12-25T11:04:45.805Z,23.95
2022-12-25T11:07:24.530Z,28.60
2022-12-25T11:10:05.369Z,54.95
2022-12-25T11:12:43.340Z,35.25
2022-12-25T11:15:33.818Z,37.25
2022-12-25T11:18:20.198Z,40.38
2022-12-25T11:20:55.513Z,26.23
2022-12-25T11:23:29.716Z,26.65
2022-12-25T11:26:05.569Z,25.33
2022-12-25T11:28:40.405Z,26.55
2022-12-25T11:31:16.259Z,31.52
2022-12-25T11:33:54.485Z,23.55
2022-12-25T11:36:32.983Z,30.83
2022-12-25T11:39:14.331Z,30.60
2022-12-25T11:41:50.957Z,29.90
2022-12-25T11:44:33.613Z,28.25
2022-12-25T11:47:13.063Z,39.83
2022-12-25T11:49:56.088Z,36.92
2022-12-25T11:52:36.540Z,29.23
2022-12-25T11:55:18.209Z,24.95
2022-12-25T11:57:57.586Z,22.27
2022-12-25T12:00:33.512Z,27.77
2022-12-25T12:03:14.487Z,25.90
2022-12-25T12:05:52.041Z,20.15
2022-12-25T12:08:24.166Z,20.92
2022-12-25T12:11:18.678Z,25.15
2022-12-25T12:14:03.237Z,22.70
2022-12-25T12:16:35.919Z,23.90
2022-12-25T12:19:12.799Z,21.08
2022-12-25T12:21:49.446Z,20.80
2022-12-25T12:24:23.811Z,16.13
2022-12-25T12:27:05.122Z,19.77
2022-12-25T12:29:43.173Z,16.92
2022-12-25T12:32:29.241Z,21.38
2022-12-25T12:35:09.371Z,19.20
2022-12-25T12:40:29.288Z,20.25
2022-12-25T12:43:02.038Z,21.38
2022-12-25T12:45:37.764Z,22.13
2022-12-25T12:48:24.961Z,20.75
2022-12-25T12:51:04.239Z,21.60
2022-12-25T12:53:38.216Z,19.77
2022-12-25T12:56:12.767Z,25.27
2022-12-25T12:58:49.992Z,24.25
2022-12-25T13:01:37.471Z,28.92
2022-12-25T13:04:32.668Z,23.42
2022-12-25T13:07:16.469Z,23.50
2022-12-25T13:10:02.933Z,23.63
2022-12-25T13:12:35.059Z,21.90
2022-12-25T13:15:13.060Z,35.72
2022-12-25T13:17:48.703Z,22.10
2022-12-25T13:20:29.346Z,20.42
2022-12-25T13:23:01.319Z,18.88
2022-12-25T13:25:33.270Z,21.25
2022-12-25T13:28:05.284Z,19.95
2022-12-25T13:30:37.353Z,34.78
2022-12-25T13:33:18.604Z,60.20
2022-12-25T13:35:50.600Z,54.03
2022-12-25T13:38:25.174Z,53.28
2022-12-25T13:41:16.919Z,42.03
2022-12-25T13:43:49.548Z,35.90
2022-12-25T13:46:25.600Z,36.13
2022-12-25T13:49:01.224Z,24.75
2022-12-25T13:51:33.265Z,22.33
2022-12-25T13:54:05.959Z,21.02
2022-12-25T13:56:37.974Z,18.30
2022-12-25T13:59:16.336Z,19.08
2022-12-25T14:01:49.910Z,22.85
2022-12-25T14:04:24.465Z,15.73
2022-12-25T14:06:56.575Z,11.23
2022-12-25T14:09:28.672Z,14.93
2022-12-25T14:12:00.771Z,12.65
2022-12-25T14:14:33.143Z,9.85
2022-12-25T14:17:05.548Z,11.00
2022-12-25T14:19:39.028Z,11.30
2022-12-25T14:22:17.706Z,8.65
2022-12-25T14:24:49.913Z,12.75
2022-12-25T14:27:24.298Z,14.98
2022-12-25T14:29:58.858Z,20.80
2022-12-25T14:32:38.790Z,27.70
2022-12-25T14:35:18.277Z,31.38
2022-12-25T14:38:00.071Z,26.85
2022-12-25T14:40:32.710Z,16.60
2022-12-25T14:43:06.392Z,24.33
2022-12-25T14:45:38.827Z,18.23
2022-12-25T14:48:22.933Z,11.45
2022-12-25T14:51:01.878Z,10.15
2022-12-25T14:53:38.570Z,18.33
2022-12-25T14:56:10.657Z,13.35
2022-12-25T14:58:48.186Z,19.95
2022-12-25T15:01:23.104Z,13.43
2022-12-25T15:04:05.740Z,8.45
2022-12-25T15:06:40.995Z,9.48
2022-12-25T15:09:15.500Z,13.60
2022-12-25T15:11:48.402Z,12.07
2022-12-25T15:14:20.336Z,11.93
2022-12-25T15:16:54.033Z,10.13
2022-12-25T15:19:34.775Z,8.07
2022-12-25T15:22:13.348Z,16.75
2022-12-25T15:24:45.291Z,14.05
2022-12-25T15:27:18.887Z,24.70
2022-12-25T15:32:42.838Z,8.30
2022-12-25T15:35:16.419Z,14.07
2022-12-25T15:37:49.875Z,12.45
2022-12-25T15:40:21.959Z,9.30
2022-12-25T15:42:56.345Z,7.85
2022-12-25T15:45:30.613Z,8.20
2022-12-25T15:48:02.652Z,8.93
2022-12-25T15:50:36.739Z,8.73
2022-12-25T15:53:11.374Z,7.13
2022-12-25T15:55:43.338Z,7.57
2022-12-25T15:58:15.385Z,8.63
2022-12-25T16:00:47.320Z,6.72
2022-12-25T16:03:19.360Z,7.63
2022-12-25T16:05:51.327Z,8.70
2022-12-25T16:08:24.680Z,8.30
2022-12-25T16:10:56.625Z,8.32
2022-12-25T16:13:28.618Z,9.25
2022-12-25T16:16:01.565Z,9.68
2022-12-25T16:18:33.731Z,8.18
2022-12-25T16:21:06.086Z,8.57
2022-12-25T16:23:39.487Z,8.05
2022-12-25T16:26:11.457Z,6.70
2022-12-25T16:28:43.785Z,6.30
2022-12-25T16:31:15.790Z,9.10
2022-12-25T16:33:47.809Z,7.45
2022-12-25T16:36:26.620Z,6.47
2022-12-25T16:39:00.497Z,5.63
2022-12-25T16:41:32.623Z,8.82
2022-12-25T16:44:09.399Z,8.27
2022-12-25T16:46:42.120Z,9.55
2022-12-25T16:49:14.155Z,6.50
2022-12-25T16:51:46.095Z,6.63
2022-12-25T16:54:19.434Z,6.03
2022-12-25T16:56:51.942Z,4.95
2022-12-25T16:59:23.918Z,4.78
2022-12-25T17:01:55.970Z,4.63
2022-12-25T17:04:28.207Z,4.47
2022-12-25T17:07:00.181Z,5.10
2022-12-25T17:09:37.514Z,5.10
2022-12-25T17:12:12.436Z,5.57
2022-12-25T17:14:45.291Z,3.70
2022-12-25T17:17:17.297Z,4.22
2022-12-25T17:19:49.339Z,4.15
2022-12-25T17:22:21.590Z,4.53
2022-12-25T17:24:54.934Z,4.35
2022-12-25T17:27:26.990Z,4.00
2022-12-25T17:29:59.005Z,3.45
2022-12-25T17:32:30.921Z,3.63
2022-12-25T17:35:03.539Z,3.38
2022-12-25T17:37:35.460Z,3.63
2022-12-25T17:40:10.438Z,3.70
2022-12-25T17:42:42.361Z,3.67
2022-12-25T17:45:14.500Z,4.47
2022-12-25T17:47:46.499Z,4.60
2022-12-25T17:50:18.712Z,3.72
2022-12-25T17:52:50.622Z,3.45
2022-12-25T17:55:23.981Z,3.00
2022-12-25T17:57:55.896Z,3.55
2022-12-25T18:00:28.543Z,3.58
2022-12-25T18:03:05.782Z,3.75
2022-12-25T18:05:42.754Z,3.47
2022-12-25T18:08:15.130Z,3.65
2022-12-25T18:10:48.500Z,4.75
2022-12-25T18:13:20.431Z,5.30
2022-12-25T18:15:52.543Z,4.45
2022-12-25T18:18:24.540Z,3.95
2022-12-25T18:20:56.691Z,4.18
2022-12-25T18:23:29.178Z,4.93
2022-12-25T18:26:03.377Z,5.53
2022-12-25T18:28:35.576Z,4.50
2022-12-25T18:31:09.279Z,4.18
2022-12-25T18:33:41.528Z,3.70
2022-12-25T18:36:16.651Z,3.15
2022-12-25T18:38:50.225Z,5.55
2022-12-25T18:41:23.873Z,4.35
2022-12-25T18:43:56.350Z,4.47
2022-12-25T18:46:28.769Z,3.70
2022-12-25T18:49:00.745Z,3.60
2022-12-25T18:51:36.938Z,4.07
2022-12-25T18:54:09.212Z,4.47
2022-12-25T18:56:42.668Z,4.40
2022-12-25T18:59:14.688Z,4.57
2022-12-25T19:01:46.848Z,5.13
2022-12-25T19:04:18.983Z,7.00
2022-12-25T19:06:51.519Z,5.88
2022-12-25T19:09:23.536Z,3.70
2022-12-25T19:11:58.357Z,4.57
2022-12-25T19:14:30.346Z,5.05
2022-12-25T19:17:19.800Z,3.85
2022-12-25T19:19:51.751Z,3.10
2022-12-25T19:22:23.793Z,3.75
2022-12-25T19:24:55.723Z,3.80
2022-12-25T19:27:29.100Z,3.55
2022-12-25T19:30:01.053Z,4.07
2022-12-25T19:32:33.064Z,4.05
2022-12-25T19:35:06.398Z,3.95
2022-12-25T19:37:39.904Z,3.65
2022-12-25T19:40:12.636Z,4.30
2022-12-25T19:42:46.043Z,6.13
2022-12-25T19:45:18.169Z,5.15
2022-12-25T19:47:50.496Z,4.95
2022-12-25T19:50:28.357Z,4.10
2022-12-25T19:53:00.381Z,4.60
2022-12-25T19:55:32.385Z,4.35
2022-12-25T19:58:05.731Z,5.13
2022-12-25T20:00:37.728Z,4.20
2022-12-25T20:03:09.750Z,5.78
2022-12-25T20:05:44.504Z,5.75
2022-12-25T20:08:16.571Z,6.80
2022-12-25T20:10:49.316Z,6.70
2022-12-25T20:13:22.780Z,6.40
2022-12-25T20:15:59.954Z,3.53
2022-12-25T20:18:32.074Z,3.08
2022-12-25T20:21:06.298Z,3.35
2022-12-25T20:23:38.299Z,3.15
2022-12-25T20:26:11.556Z,2.72
2022-12-25T20:28:45.307Z,2.80
2022-12-25T20:31:19.334Z,3.65
2022-12-25T20:33:51.424Z,2.90
2022-12-25T20:36:23.736Z,2.45
2022-12-25T20:38:55.718Z,2.67
2022-12-25T20:41:29.193Z,3.05
2022-12-25T20:44:04.347Z,2.55
2022-12-25T20:46:36.472Z,2.80
2022-12-25T20:49:08.799Z,2.70
2022-12-25T20:51:40.809Z,2.38
2022-12-25T20:54:14.911Z,2.88
2022-12-25T20:56:48.469Z,4.47
2022-12-25T20:59:22.005Z,8.35
2022-12-25T21:01:55.491Z,3.50
2022-12-25T21:04:27.660Z,3.97
2022-12-25T21:07:00.422Z,4.13
2022-12-25T21:09:32.692Z,4.07
2022-12-25T21:12:05.054Z,3.90
2022-12-25T21:14:40.303Z,5.03
2022-12-25T21:17:12.263Z,5.75
2022-12-25T21:19:44.308Z,3.13
2022-12-25T21:22:16.287Z,10.52
2022-12-25T21:24:52.023Z,4.47
2022-12-25T21:27:24.124Z,7.82
2022-12-25T21:29:57.451Z,9.10
2022-12-25T21:32:48.132Z,5.15
2022-12-25T21:35:20.072Z,4.63
2022-12-25T21:37:52.008Z,2.72
2022-12-25T21:40:23.949Z,4.10
2022-12-25T21:42:55.921Z,3.40
2022-12-25T21:45:29.792Z,3.45
2022-12-25T21:48:03.651Z,5.03
2022-12-25T21:50:55.434Z,3.63
2022-12-25T21:53:27.437Z,4.25
2022-12-25T21:56:02.035Z,2.88
2022-12-25T21:58:33.980Z,3.25
2022-12-25T22:01:07.674Z,5.72
2022-12-25T22:03:39.788Z,4.78
2022-12-25T22:06:32.661Z,3.60
2022-12-25T22:09:05.712Z,3.17
2022-12-25T22:11:55.960Z,7.85
2022-12-25T22:14:52.585Z,4.13
2022-12-25T22:17:48.340Z,4.95
2022-12-25T22:20:22.764Z,5.00
2022-12-25T22:22:54.877Z,4.72
2022-12-25T22:25:26.833Z,3.38
2022-12-25T22:27:58.853Z,3.65
2022-12-25T22:30:32.121Z,3.85
2022-12-25T22:33:06.771Z,3.70
2022-12-25T22:35:38.820Z,3.50
2022-12-25T22:38:10.788Z,3.80
2022-12-25T22:40:42.722Z,2.97
2022-12-25T22:43:14.665Z,3.72
2022-12-25T22:45:46.783Z,2.83
2022-12-25T22:48:20.138Z,3.28
2022-12-25T22:50:52.094Z,2.85
2022-12-25T22:53:24.040Z,3.33
2022-12-25T22:55:55.999Z,2.90
2022-12-25T22:58:27.986Z,12.23
2022-12-25T23:01:00.099Z,16.13
2022-12-25T23:03:33.562Z,11.18
2022-12-25T23:06:05.780Z,3.78
2022-12-25T23:08:37.782Z,3.15
2022-12-25T23:11:09.734Z,3.20
2022-12-25T23:14:00.129Z,3.42
2022-12-25T23:16:32.693Z,3.42
2022-12-25T23:19:25.395Z,3.30
2022-12-25T23:22:15.946Z,3.38
2022-12-25T23:25:06.326Z,3.10
2022-12-25T23:27:38.294Z,2.67
2022-12-25T23:30:12.141Z,2.80
2022-12-25T23:32:44.363Z,2.92
2022-12-25T23:35:17.706Z,3.30
2022-12-25T23:37:53.152Z,3.05
2022-12-25T23:40:25.147Z,2.65
2022-12-25T23:42:57.152Z,2.97
2022-12-25T23:45:29.088Z,3.15
2022-12-25T23:48:01.046Z,3.33
2022-12-25T23:50:35.261Z,2.97
2022-12-25T23:53:07.209Z,2.90
2022-12-25T23:55:39.311Z,2.92
2022-12-25T23:58:11.303Z,3.22
